createdAt,value
2023-04-21T00:01:33.032Z,100436.94
2023-04-21T00:04:02.914Z,100438.00
2023-04-21T00:06:33.335Z,100427.00
2023-04-21T00:09:00.797Z,100423.75
2023-04-21T00:11:31.074Z,100429.88
2023-04-21T00:13:59.885Z,100433.63
2023-04-21T00:16:27.472Z,100425.03
2023-04-21T00:18:54.950Z,100431.44
2023-04-21T00:21:25.941Z,100427.13
2023-04-21T00:23:56.667Z,100425.97
2023-04-21T00:26:28.123Z,100428.66
2023-04-21T00:28:55.552Z,100424.38
2023-04-21T00:31:24.244Z,100423.31
2023-04-21T00:33:54.185Z,100411.84
2023-04-21T00:36:24.987Z,100422.75
2023-04-21T00:38:54.093Z,100421.59
2023-04-21T00:41:21.356Z,100419.41
2023-04-21T00:44:30.625Z,100417.78
2023-04-21T00:46:57.953Z,100413.97
2023-04-21T00:49:35.368Z,100418.25
2023-04-21T00:52:07.529Z,100412.13
2023-04-21T00:54:36.728Z,100405.38
2023-04-21T00:57:04.513Z,100411.22
2023-04-21T00:59:32.089Z,100409.13
2023-04-21T01:02:02.359Z,100410.97
2023-04-21T01:04:39.849Z,100406.44
2023-04-21T01:07:07.964Z,100401.69
2023-04-21T01:09:34.865Z,100403.66
2023-04-21T01:12:05.828Z,100408.75
2023-04-21T01:14:39.042Z,100407.69
2023-04-21T01:17:10.138Z,100397.59
2023-04-21T01:19:45.239Z,100397.38
2023-04-21T01:22:16.233Z,100405.16
2023-04-21T01:24:49.714Z,100408.97
2023-04-21T01:27:29.332Z,100406.88
2023-04-21T01:29:58.448Z,100407.91
2023-04-21T01:32:30.529Z,100407.31
2023-04-21T01:35:00.389Z,100407.31
2023-04-21T01:37:31.971Z,100407.91
2023-04-21T01:40:05.679Z,100397.22
2023-04-21T01:42:38.561Z,100397.22
2023-04-21T01:45:06.774Z,100393.53
2023-04-21T01:47:37.539Z,100389.47
2023-04-21T01:50:08.309Z,100389.16
2023-04-21T01:52:36.040Z,100401.91
2023-04-21T01:55:03.529Z,100404.44
2023-04-21T01:57:32.296Z,100403.31
2023-04-21T02:00:03.558Z,100409.91
2023-04-21T02:02:45.028Z,100404.50
2023-04-21T02:05:13.608Z,100408.41
2023-04-21T02:07:41.564Z,100408.06
2023-04-21T02:10:09.282Z,100404.00
2023-04-21T02:12:36.377Z,100407.03
2023-04-21T02:15:04.061Z,100405.53
2023-04-21T02:17:40.826Z,100408.56
2023-04-21T02:20:15.185Z,100411.34
2023-04-21T02:22:44.945Z,100413.88
2023-04-21T02:25:12.449Z,100415.38
2023-04-21T02:27:39.930Z,100412.72
2023-04-21T02:30:11.313Z,100407.66
2023-04-21T02:32:46.161Z,100405.22
2023-04-21T02:35:14.104Z,100409.72
2023-04-21T02:37:42.767Z,100420.38
2023-04-21T02:40:22.336Z,100415.50
2023-04-21T02:42:52.262Z,100421.53
2023-04-21T02:45:21.990Z,100419.34
2023-04-21T02:47:51.363Z,100424.88
2023-04-21T02:50:18.722Z,100421.88
2023-04-21T02:52:46.282Z,100419.44
2023-04-21T02:55:18.583Z,100423.94
2023-04-21T02:57:46.172Z,100421.19
2023-04-21T03:00:14.198Z,100425.34
2023-04-21T03:02:44.983Z,100424.63
2023-04-21T03:05:13.171Z,100424.63
2023-04-21T03:07:42.969Z,100426.38
2023-04-21T03:10:11.992Z,100427.75
2023-04-21T03:12:41.285Z,100424.88
2023-04-21T03:15:09.312Z,100419.31
2023-04-21T03:17:41.010Z,100420.34
2023-04-21T03:20:19.725Z,100414.69
2023-04-21T03:22:58.990Z,100412.72
2023-04-21T03:25:33.517Z,100417.09
2023-04-21T03:28:02.000Z,100420.22
2023-04-21T03:30:32.672Z,100420.69
2023-04-21T03:33:00.433Z,100410.47
2023-04-21T03:35:31.597Z,100406.69
2023-04-21T03:38:03.998Z,100410.00
2023-04-21T03:40:34.225Z,100411.28
2023-04-21T03:43:05.164Z,100412.06
2023-04-21T03:45:39.986Z,100407.69
2023-04-21T03:48:11.317Z,100410.47
2023-04-21T03:51:01.647Z,100406.31
2023-04-21T03:53:38.125Z,100406.09
2023-04-21T03:56:13.429Z,100403.56
2023-04-21T03:59:01.889Z,100405.31
2023-04-21T04:01:40.176Z,100413.41
2023-04-21T04:04:08.060Z,100406.81
2023-04-21T04:06:35.906Z,100407.41
2023-04-21T04:09:06.516Z,100409.13
2023-04-21T04:11:39.640Z,100408.91
2023-04-21T04:14:10.240Z,100406.03
2023-04-21T04:16:38.189Z,100413.53
2023-04-21T04:19:10.554Z,100407.78
2023-04-21T04:21:44.763Z,100400.34
2023-04-21T04:24:12.185Z,100409.72
2023-04-21T04:26:40.268Z,100394.91
2023-04-21T04:29:10.835Z,100399.97
2023-04-21T04:31:38.676Z,100402.31
2023-04-21T04:34:07.564Z,100401.38
2023-04-21T04:36:35.501Z,100411.47
2023-04-21T04:39:16.718Z,100408.56
2023-04-21T04:41:47.699Z,100417.94
2023-04-21T04:44:23.862Z,100410.06
2023-04-21T04:46:53.087Z,100407.97
2023-04-21T04:49:32.328Z,100397.69
2023-04-21T04:52:08.813Z,100403.59
2023-04-21T04:54:38.483Z,100404.16
2023-04-21T04:57:06.558Z,100407.88
2023-04-21T04:59:37.419Z,100402.56
2023-04-21T05:02:07.841Z,100423.75
2023-04-21T05:04:38.108Z,100427.31
2023-04-21T05:07:09.220Z,100422.69
2023-04-21T05:09:40.129Z,100426.28
2023-04-21T05:12:11.592Z,100418.03
2023-04-21T05:14:39.471Z,100422.56
2023-04-21T05:17:09.967Z,100428.81
2023-04-21T05:19:41.353Z,100419.56
2023-04-21T05:22:13.539Z,100422.59
2023-04-21T05:24:44.095Z,100436.13
2023-04-21T05:27:11.709Z,100430.66
2023-04-21T05:29:38.972Z,100429.28
2023-04-21T05:32:06.794Z,100437.97
2023-04-21T05:34:37.169Z,100432.50
2023-04-21T05:37:10.725Z,100435.06
2023-04-21T05:39:37.747Z,100429.28
2023-04-21T05:42:05.136Z,100431.00
2023-04-21T05:44:32.918Z,100431.47
2023-04-21T05:47:06.742Z,100432.59
2023-04-21T05:49:34.194Z,100439.09
2023-04-21T05:52:02.080Z,100439.91
2023-04-21T05:54:33.227Z,100446.84
2023-04-21T05:57:09.720Z,100443.13
2023-04-21T05:59:39.670Z,100447.44
2023-04-21T06:02:06.797Z,100450.75
2023-04-21T06:04:36.885Z,100449.59
2023-04-21T06:07:10.676Z,100460.19
2023-04-21T06:09:38.469Z,100450.22
2023-04-21T06:12:08.648Z,100453.66
2023-04-21T06:14:36.038Z,100447.34
2023-04-21T06:17:03.380Z,100450.56
2023-04-21T06:19:30.585Z,100452.66
2023-04-21T06:21:57.819Z,100452.66
2023-04-21T06:24:25.733Z,100460.78
2023-04-21T06:26:53.531Z,100472.13
2023-04-21T06:29:25.528Z,100465.66
2023-04-21T06:31:52.841Z,100469.41
2023-04-21T06:34:24.321Z,100468.63
2023-04-21T06:36:52.441Z,100475.88
2023-04-21T06:39:25.410Z,100467.94
2023-04-21T06:41:53.364Z,100467.47
2023-04-21T06:44:25.157Z,100462.75
2023-04-21T06:46:52.871Z,100458.50
2023-04-21T06:49:20.327Z,100468.00
2023-04-21T06:51:48.057Z,100473.25
2023-04-21T06:54:15.645Z,100465.50
2023-04-21T06:56:45.428Z,100471.06
2023-04-21T06:59:12.552Z,100472.59
2023-04-21T07:01:39.801Z,100462.94
2023-04-21T07:04:07.965Z,100461.13
2023-04-21T07:06:34.824Z,100461.31
2023-04-21T07:09:01.967Z,100458.47
2023-04-21T07:11:29.400Z,100456.50
2023-04-21T07:13:56.770Z,100455.84
2023-04-21T07:16:25.250Z,100455.22
2023-04-21T07:18:52.289Z,100453.22
2023-04-21T07:21:19.348Z,100450.78
2023-04-21T07:23:46.569Z,100452.19
2023-04-21T07:26:14.202Z,100456.28
2023-04-21T07:28:43.120Z,100453.53
2023-04-21T07:31:10.559Z,100457.72
2023-04-21T07:33:38.071Z,100451.66
2023-04-21T07:36:05.915Z,100444.00
2023-04-21T07:38:34.713Z,100444.34
2023-04-21T07:41:02.200Z,100445.19
2023-04-21T07:43:35.654Z,100437.97
2023-04-21T07:46:03.447Z,100447.56
2023-04-21T07:48:31.904Z,100455.22
2023-04-21T07:51:00.501Z,100456.31
2023-04-21T07:53:31.235Z,100453.81
2023-04-21T07:56:02.109Z,100450.28
2023-04-21T07:58:36.373Z,100443.00
2023-04-21T08:01:04.137Z,100435.72
2023-04-21T08:03:34.334Z,100427.78
2023-04-21T08:06:06.975Z,100433.16
2023-04-21T08:08:34.893Z,100428.84
2023-04-21T08:11:15.387Z,100428.84
2023-04-21T08:13:42.282Z,100425.63
2023-04-21T08:16:17.087Z,100418.00
2023-04-21T08:18:44.454Z,100419.09
2023-04-21T08:21:18.675Z,100420.19
2023-04-21T08:23:48.997Z,100415.91
2023-04-21T08:26:18.989Z,100413.28
2023-04-21T08:28:49.175Z,100415.66
2023-04-21T08:31:17.834Z,100407.97
2023-04-21T08:33:57.943Z,100399.50
2023-04-21T08:36:30.391Z,100385.78
2023-04-21T08:39:01.413Z,100381.88
2023-04-21T08:41:31.720Z,100372.81
2023-04-21T08:44:03.804Z,100375.66
2023-04-21T08:46:34.959Z,100372.13
2023-04-21T08:49:03.056Z,100364.72
2023-04-21T08:51:34.216Z,100362.88
2023-04-21T08:54:02.553Z,100367.06
2023-04-21T08:56:29.617Z,100365.16
2023-04-21T08:58:57.171Z,100361.56
2023-04-21T09:01:24.460Z,100363.22
2023-04-21T09:03:51.468Z,100361.56
2023-04-21T09:06:19.105Z,100369.66
2023-04-21T09:08:56.462Z,100353.03
2023-04-21T09:11:27.029Z,100346.38
2023-04-21T09:13:57.798Z,100331.47
2023-04-21T09:16:33.179Z,100334.91
2023-04-21T09:19:01.424Z,100332.66
2023-04-21T09:21:31.452Z,100323.56
2023-04-21T09:24:06.942Z,100316.28
2023-04-21T09:26:37.216Z,100304.69
2023-04-21T09:29:09.789Z,100299.50
2023-04-21T09:31:37.494Z,100296.75
2023-04-21T09:34:26.592Z,100290.22
2023-04-21T09:37:07.590Z,100292.00
2023-04-21T09:39:52.748Z,100289.53
2023-04-21T09:42:39.672Z,100277.56
2023-04-21T09:47:44.235Z,100283.69
2023-04-21T09:50:26.646Z,100297.94
2023-04-21T09:53:08.175Z,100288.03
2023-04-21T09:55:35.365Z,100279.72
2023-04-21T09:58:14.035Z,100275.16
2023-04-21T10:00:44.057Z,100253.88
2023-04-21T10:03:27.707Z,100257.13
2023-04-21T10:06:07.322Z,100255.06
2023-04-21T10:08:42.400Z,100256.09
2023-04-21T10:11:13.684Z,100247.59
2023-04-21T10:13:43.287Z,100233.59
2023-04-21T10:16:12.292Z,100229.44
2023-04-21T10:18:44.353Z,100229.09
2023-04-21T10:21:24.641Z,100237.69
2023-04-21T10:23:58.571Z,100228.88
2023-04-21T10:26:29.458Z,100221.91
2023-04-21T10:29:09.633Z,100224.91
2023-04-21T10:31:52.988Z,100227.66
2023-04-21T10:34:26.728Z,100224.09
2023-04-21T10:36:59.838Z,100215.63
2023-04-21T10:39:36.569Z,100210.13
2023-04-21T10:42:24.877Z,100215.47
2023-04-21T10:44:58.171Z,100213.94
2023-04-21T10:47:43.231Z,100206.72
2023-04-21T10:50:23.356Z,100197.34
2023-04-21T10:52:57.013Z,100192.53
2023-04-21T10:55:27.969Z,100181.25
2023-04-21T10:58:02.758Z,100180.28
2023-04-21T11:00:33.232Z,100178.50
2023-04-21T11:03:03.254Z,100176.66
2023-04-21T11:05:36.441Z,100174.91
2023-04-21T11:08:13.174Z,100152.69
2023-04-21T11:10:50.692Z,100155.59
2023-04-21T11:13:17.828Z,100162.56
2023-04-21T11:16:08.479Z,100155.13
2023-04-21T11:18:40.556Z,100141.88
2023-04-21T11:21:12.381Z,100148.63
2023-04-21T11:23:49.986Z,100149.00
2023-04-21T11:26:18.833Z,100151.06
2023-04-21T11:28:49.650Z,100130.78
2023-04-21T11:31:16.690Z,100143.38
2023-04-21T11:33:44.166Z,100129.69
2023-04-21T11:36:11.110Z,100126.66
2023-04-21T11:38:42.458Z,100121.25
2023-04-21T11:41:10.865Z,100119.00
2023-04-21T11:43:38.369Z,100110.41
2023-04-21T11:46:26.240Z,100100.44
2023-04-21T11:49:06.059Z,100101.47
2023-04-21T11:51:43.287Z,100095.53
2023-04-21T11:54:13.128Z,100097.81
2023-04-21T11:56:46.705Z,100096.34
2023-04-21T11:59:15.396Z,100096.84
2023-04-21T12:01:54.402Z,100086.84
2023-04-21T12:04:24.379Z,100085.34
2023-04-21T12:06:59.743Z,100092.44
2023-04-21T12:09:27.616Z,100093.13
2023-04-21T12:11:57.432Z,100087.59
2023-04-21T12:14:26.328Z,100086.63
2023-04-21T12:16:58.607Z,100081.41
2023-04-21T12:19:45.974Z,100086.09
2023-04-21T12:22:23.639Z,100085.59
2023-04-21T12:24:52.750Z,100102.59
2023-04-21T12:27:20.611Z,100107.59
2023-04-21T12:29:47.644Z,100117.09
2023-04-21T12:32:17.815Z,100107.03
2023-04-21T12:34:44.753Z,100113.75
2023-04-21T12:37:11.758Z,100106.97
2023-04-21T12:39:38.847Z,100109.81
2023-04-21T12:42:07.103Z,100114.13
2023-04-21T12:44:35.317Z,100110.38
2023-04-21T12:47:02.328Z,100108.00
2023-04-21T12:49:29.927Z,100104.81
2023-04-21T12:52:00.481Z,100099.75
2023-04-21T12:54:27.424Z,100100.97
2023-04-21T12:56:54.400Z,100100.31
2023-04-21T12:59:21.543Z,100092.81
2023-04-21T13:01:48.579Z,100089.09
2023-04-21T13:04:18.082Z,100097.94
2023-04-21T13:06:44.954Z,100097.50
2023-04-21T13:09:11.794Z,100089.66
2023-04-21T13:11:38.494Z,100092.19
2023-04-21T13:14:05.401Z,100090.50
2023-04-21T13:16:32.333Z,100088.31
2023-04-21T13:18:59.373Z,100089.13
2023-04-21T13:21:26.428Z,100087.63
2023-04-21T13:23:54.045Z,100080.13
2023-04-21T13:26:21.050Z,100090.50
2023-04-21T13:28:48.070Z,100088.50
2023-04-21T13:31:15.192Z,100083.03
2023-04-21T13:33:45.120Z,100079.34
2023-04-21T13:36:12.992Z,100067.53
2023-04-21T13:38:41.026Z,100075.91
2023-04-21T13:41:12.347Z,100068.63
2023-04-21T13:43:39.289Z,100058.50
2023-04-21T13:46:06.195Z,100056.31
2023-04-21T13:48:33.598Z,100059.19
2023-04-21T13:51:07.103Z,100056.59
2023-04-21T13:53:37.227Z,100046.72
2023-04-21T13:56:06.642Z,100053.72
2023-04-21T13:58:37.027Z,100052.84
2023-04-21T14:01:05.332Z,100056.44
2023-04-21T14:03:32.515Z,100052.81
2023-04-21T14:05:59.386Z,100047.25
2023-04-21T14:08:26.410Z,100040.22
2023-04-21T14:10:57.642Z,100038.75
2023-04-21T14:16:01.128Z,100021.75
2023-04-21T14:18:33.822Z,100020.75
2023-04-21T14:21:00.838Z,100006.63
2023-04-21T14:23:36.560Z,100017.78
2023-04-21T14:26:05.140Z,100007.53
2023-04-21T14:28:32.883Z,100009.22
2023-04-21T14:30:59.936Z,99998.91
2023-04-21T14:33:26.713Z,100000.63
2023-04-21T14:35:56.484Z,99992.78
2023-04-21T14:38:25.405Z,99986.22
2023-04-21T14:40:55.247Z,99986.41
2023-04-21T14:43:22.638Z,99986.41
2023-04-21T14:45:56.313Z,99980.97
2023-04-21T14:48:24.971Z,99982.16
2023-04-21T14:51:11.183Z,99980.16
2023-04-21T14:53:41.022Z,99979.25
2023-04-21T14:56:08.261Z,99977.19
2023-04-21T14:58:38.772Z,99972.53
2023-04-21T15:01:17.532Z,99975.56
2023-04-21T15:03:57.463Z,99968.53
2023-04-21T15:06:27.703Z,99964.47
2023-04-21T15:08:55.163Z,99966.28
2023-04-21T15:11:23.207Z,99960.63
2023-04-21T15:13:50.078Z,99962.66
2023-04-21T15:16:18.665Z,99961.41
2023-04-21T15:18:48.532Z,99968.34
2023-04-21T15:21:15.429Z,99962.44
2023-04-21T15:23:43.568Z,99960.88
2023-04-21T15:26:13.084Z,99957.47
2023-04-21T15:28:51.991Z,99948.06
2023-04-21T15:34:15.687Z,99951.56
2023-04-21T15:41:11.841Z,99960.38
2023-04-21T15:44:12.631Z,99953.63
2023-04-21T15:46:50.345Z,99949.31
2023-04-21T15:49:25.722Z,99952.50
2023-04-21T15:52:25.856Z,99959.28
2023-04-21T15:55:00.261Z,99950.56
2023-04-21T15:57:41.908Z,99948.16
2023-04-21T16:00:38.930Z,99944.53
2023-04-21T16:03:53.037Z,99950.19
2023-04-21T16:06:28.822Z,99940.34
2023-04-21T16:09:32.170Z,99952.91
2023-04-21T16:15:24.736Z,99954.88
2023-04-21T16:17:55.217Z,99954.97
2023-04-21T16:20:35.902Z,99948.69
2023-04-21T16:23:09.652Z,99951.22
2023-04-21T16:25:59.929Z,99959.41
2023-04-21T16:28:42.994Z,99967.88
2023-04-21T16:31:12.640Z,99972.66
2023-04-21T16:33:40.018Z,100002.38
2023-04-21T16:36:07.067Z,100035.94
2023-04-21T16:38:34.211Z,100032.53
2023-04-21T16:41:01.377Z,100050.34
2023-04-21T16:43:28.686Z,100055.34
2023-04-21T16:45:55.761Z,100060.13
2023-04-21T16:48:23.013Z,100054.34
2023-04-21T16:50:57.550Z,100056.22
2023-04-21T16:53:38.802Z,100050.00
2023-04-21T16:56:33.209Z,100053.38
2023-04-21T16:59:13.803Z,100040.72
2023-04-21T17:01:44.465Z,100034.19
2023-04-21T17:04:14.256Z,100005.16
2023-04-21T17:06:41.739Z,99994.53
2023-04-21T17:09:09.795Z,99990.19
2023-04-21T17:14:19.131Z,99926.88
2023-04-21T17:16:46.319Z,99916.69
2023-04-21T17:19:13.144Z,99924.34
2023-04-21T17:21:39.934Z,99929.63
2023-04-21T17:24:09.752Z,99924.69
2023-04-21T17:26:36.804Z,99936.13
2023-04-21T17:29:05.459Z,99944.28
2023-04-21T17:31:33.225Z,99941.09
2023-04-21T17:34:04.897Z,99951.94
2023-04-21T17:36:31.782Z,99954.50
2023-04-21T17:39:06.613Z,99947.94
2023-04-21T17:41:35.888Z,99953.53
2023-04-21T17:44:02.896Z,99959.41
2023-04-21T17:46:30.846Z,99955.94
2023-04-21T17:48:57.881Z,99964.22
2023-04-21T17:51:24.886Z,99959.75
2023-04-21T17:53:52.080Z,99969.16
2023-04-21T17:56:21.471Z,99978.59
2023-04-21T17:58:48.457Z,99977.78
2023-04-21T18:01:18.322Z,99958.31
2023-04-21T18:03:48.390Z,99921.94
2023-04-21T18:06:16.588Z,99896.06
2023-04-21T18:08:43.933Z,99902.59
2023-04-21T18:11:12.284Z,99905.50
2023-04-21T18:13:39.089Z,99913.03
2023-04-21T18:16:06.473Z,99924.13
2023-04-21T18:18:33.810Z,99927.59
2023-04-21T18:21:00.818Z,99933.59
2023-04-21T18:23:27.743Z,99936.56
2023-04-21T18:25:54.909Z,99945.16
2023-04-21T18:28:23.097Z,99939.56
2023-04-21T18:30:50.365Z,99949.25
2023-04-21T18:33:20.578Z,99950.00
2023-04-21T18:35:50.017Z,99951.72
2023-04-21T18:38:17.012Z,99949.47
2023-04-21T18:40:47.178Z,99944.38
2023-04-21T18:43:14.395Z,99956.09
2023-04-21T18:45:41.985Z,99974.13
2023-04-21T18:48:09.641Z,99977.16
2023-04-21T18:50:40.314Z,99989.50
2023-04-21T18:53:09.313Z,100009.06
2023-04-21T18:55:37.415Z,100025.88
2023-04-21T18:58:07.859Z,100027.88
2023-04-21T19:00:37.571Z,100037.50
2023-04-21T19:03:06.375Z,100034.31
2023-04-21T19:05:37.291Z,100022.09
2023-04-21T19:08:04.423Z,100027.25
2023-04-21T19:10:36.805Z,100016.31
2023-04-21T19:13:04.384Z,100015.53
2023-04-21T19:15:31.132Z,100034.81
2023-04-21T19:18:01.727Z,100022.91
2023-04-21T19:20:31.349Z,100027.41
2023-04-21T19:22:58.499Z,100030.56
2023-04-21T19:25:25.412Z,100032.22
2023-04-21T19:27:52.500Z,100023.44
2023-04-21T19:30:21.902Z,100028.84
2023-04-21T19:32:50.186Z,100033.72
2023-04-21T19:35:17.131Z,100038.94
2023-04-21T19:37:44.151Z,100037.06
2023-04-21T19:40:14.104Z,100037.56
2023-04-21T19:42:41.847Z,100032.94
2023-04-21T19:45:09.706Z,100024.34
2023-04-21T19:47:36.590Z,100021.44
2023-04-21T19:50:08.327Z,100026.44
2023-04-21T19:52:35.561Z,100031.94
2023-04-21T19:55:02.352Z,100033.72
2023-04-21T19:57:29.288Z,100036.59
2023-04-21T19:59:56.195Z,100041.69
2023-04-21T20:02:23.106Z,100044.56
2023-04-21T20:04:50.848Z,100044.16
2023-04-21T20:07:18.116Z,100034.44
2023-04-21T20:09:45.230Z,100028.38
2023-04-21T20:12:13.676Z,100023.91
2023-04-21T20:14:41.716Z,100032.50
2023-04-21T20:17:08.660Z,100028.13
2023-04-21T20:19:40.482Z,100028.50
2023-04-21T20:22:08.481Z,100031.00
2023-04-21T20:24:35.694Z,100028.69
2023-04-21T20:27:03.150Z,100031.72
2023-04-21T20:29:31.201Z,100031.34
2023-04-21T20:31:58.427Z,100034.44
2023-04-21T20:34:25.480Z,100031.72
2023-04-21T20:36:54.548Z,100032.84
2023-04-21T20:39:22.155Z,100034.44
2023-04-21T20:41:58.127Z,100028.03
2023-04-21T20:44:31.774Z,100026.75
2023-04-21T20:46:59.327Z,100028.16
2023-04-21T20:49:29.007Z,100027.69
2023-04-21T20:51:59.567Z,100025.69
2023-04-21T20:54:26.700Z,100029.13
2023-04-21T20:56:55.321Z,100027.50
2023-04-21T20:59:22.834Z,100028.91
2023-04-21T21:01:49.860Z,100037.91
2023-04-21T21:04:17.055Z,100031.50
2023-04-21T21:06:43.980Z,100040.09
2023-04-21T21:09:12.338Z,100039.19
2023-04-21T21:11:39.193Z,100040.09
2023-04-21T21:14:06.094Z,100037.91
2023-04-21T21:16:33.179Z,100041.09
2023-04-21T21:19:01.398Z,100038.91
2023-04-21T21:21:28.189Z,100037.91
2023-04-21T21:23:58.294Z,100040.88
2023-04-21T21:26:25.211Z,100040.88
2023-04-21T21:28:52.472Z,100041.59
2023-04-21T21:31:19.110Z,100042.13
2023-04-21T21:33:46.040Z,100042.91
2023-04-21T21:36:14.160Z,100048.09
2023-04-21T21:38:41.127Z,100052.91
2023-04-21T21:41:10.868Z,100052.31
2023-04-21T21:43:37.542Z,100053.91
2023-04-21T21:46:09.225Z,100050.41
2023-04-21T21:48:36.076Z,100033.09
2023-04-21T21:51:04.391Z,100026.91
2023-04-21T21:53:32.510Z,100028.00
2023-04-21T21:56:00.058Z,100036.72
2023-04-21T21:58:27.835Z,100037.28
2023-04-21T22:00:55.277Z,100044.38
2023-04-21T22:03:22.907Z,100045.28
2023-04-21T22:05:49.839Z,100054.28
2023-04-21T22:08:16.743Z,100060.25
2023-04-21T22:10:44.361Z,100056.53
2023-04-21T22:13:11.897Z,100059.84
2023-04-21T22:15:40.336Z,100065.31
2023-04-21T22:18:08.235Z,100057.81
2023-04-21T22:20:35.727Z,100053.81
2023-04-21T22:23:04.296Z,100054.41
2023-04-21T22:25:31.292Z,100048.22
2023-04-21T22:28:01.130Z,100052.03
2023-04-21T22:30:27.837Z,100051.56
2023-04-21T22:32:54.532Z,100062.25
2023-04-21T22:35:21.319Z,100059.84
2023-04-21T22:37:49.496Z,100055.75
2023-04-21T22:40:16.156Z,100059.78
2023-04-21T22:42:42.926Z,100052.19
2023-04-21T22:45:09.973Z,100052.19
2023-04-21T22:47:36.964Z,100060.56
2023-04-21T22:50:04.445Z,100055.97
2023-04-21T22:52:31.136Z,100058.16
2023-04-21T22:54:58.206Z,100052.75
2023-04-21T22:57:25.666Z,100062.25
2023-04-21T22:59:52.664Z,100059.31
2023-04-21T23:02:19.577Z,100060.44
2023-04-21T23:04:46.340Z,100046.94
2023-04-21T23:07:13.037Z,100043.75
2023-04-21T23:09:39.856Z,100052.41
2023-04-21T23:12:06.794Z,100051.91
2023-04-21T23:14:33.769Z,100040.09
2023-04-21T23:17:00.522Z,100034.69
2023-04-21T23:19:27.155Z,100033.69
2023-04-21T23:21:53.902Z,100037.50
2023-04-21T23:24:20.836Z,100036.97
2023-04-21T23:26:49.732Z,100027.03
2023-04-21T23:29:16.472Z,100038.13
2023-04-21T23:31:43.716Z,100034.34
2023-04-21T23:34:10.634Z,100044.84
2023-04-21T23:36:37.429Z,100034.06
2023-04-21T23:39:04.189Z,100038.66
2023-04-21T23:41:31.039Z,100039.44
2023-04-21T23:43:57.931Z,100030.03
2023-04-21T23:46:24.735Z,100039.22
2023-04-21T23:48:51.619Z,100033.31
2023-04-21T23:51:18.360Z,100033.84
2023-04-21T23:53:45.783Z,100037.59
2023-04-21T23:56:12.676Z,100036.03
2023-04-21T23:58:39.679Z,100024.72
